Time;durP1;ratioP1;P1;durP2;ratioP2;P2;SDS_P1;SDS_P2;PMS_P1;PMS_P2;Temp;Humidity;BMP_temperature;BMP_pressure;BME280_temperature;BME280_humidity;BME280_pressure;Samples;Min_cycle;Max_cycle;Signal;HPM_P1;HPM_P2
2021/06/13 00:01:21;;;;;;;5.43;3.00;;;;;;;17.32;72.04;99514.44;5014880;28;20423;-66
2021/06/13 00:03:51;;;;;;;5.13;3.00;;;;;;;17.29;71.67;99518.84;5014910;28;20093;-64
2021/06/13 00:06:22;;;;;;;;;;;;;;;17.32;71.37;99519.59;5015304;28;20046;-66
2021/06/13 00:08:51;;;;;;;3.75;2.65;;;;;;;17.30;70.89;99521.38;5014755;28;19922;-66
2021/06/13 00:11:25;;;;;;;6.97;3.17;;;;;;;17.24;71.19;99520.72;5015136;28;20435;-66
2021/06/13 00:13:57;;;;;;;4.25;2.78;;;;;;;17.16;71.08;99515.78;5014533;28;20134;-66
2021/06/13 00:16:29;;;;;;;5.32;3.08;;;;;;;17.08;70.99;99517.78;5014541;28;20093;-65
2021/06/13 00:18:58;;;;;;;4.88;3.30;;;;;;;17.06;70.87;99519.53;5014218;28;20046;-65
2021/06/13 00:21:33;;;;;;;6.55;3.40;;;;;;;17.02;70.95;99530.84;5015032;28;20058;-67
2021/06/13 00:24:06;;;;;;;9.23;3.53;;;;;;;17.04;71.07;99541.09;5014672;28;20049;-68
2021/06/13 00:26:39;;;;;;;4.93;3.05;;;;;;;16.97;71.04;99527.53;5015198;28;20058;-67
2021/06/13 00:29:11;;;;;;;6.80;4.05;;;;;;;16.84;71.47;99508.19;5015160;28;20057;-66
2021/06/13 00:31:43;;;;;;;4.63;3.05;;;;;;;16.89;71.25;99524.34;5014712;28;20400;-66
2021/06/13 00:34:17;;;;;;;6.97;3.30;;;;;;;16.93;71.46;99527.69;5014793;28;20080;-66
2021/06/13 00:36:49;;;;;;;5.40;3.10;;;;;;;16.94;71.49;99519.88;5013712;28;20068;-66
2021/06/13 00:39:21;;;;;;;5.47;3.45;;;;;;;16.91;71.28;99532.88;5012909;28;20077;-67
2021/06/13 00:41:55;;;;;;;8.00;3.38;;;;;;;16.89;70.92;99537.25;5013205;28;20069;-65
2021/06/13 00:44:27;;;;;;;5.20;3.05;;;;;;;16.87;71.03;99541.56;5014329;28;20061;-67
2021/06/13 00:47:00;;;;;;;5.18;3.03;;;;;;;16.86;71.42;99552.78;5014536;28;20054;-66
2021/06/13 00:49:32;;;;;;;6.22;3.30;;;;;;;16.85;71.31;99548.50;5012817;28;20049;-66
2021/06/13 00:52:06;;;;;;;6.07;3.10;;;;;;;16.78;71.34;99552.16;5013965;28;20439;-66
2021/06/13 00:54:39;;;;;;;5.47;2.95;;;;;;;16.70;71.49;99543.78;5013900;28;20238;-65
2021/06/13 00:57:13;;;;;;;8.25;3.38;;;;;;;16.73;71.70;99554.00;5014325;28;20052;-66
2021/06/13 00:59:43;;;;;;;5.53;3.30;;;;;;;16.70;71.65;99548.94;4996861;28;20081;-66
2021/06/13 01:02:15;;;;;;;6.00;3.25;;;;;;;16.63;71.81;99539.69;5013435;28;20070;-66
2021/06/13 01:04:48;;;;;;;6.18;3.30;;;;;;;16.63;72.17;99548.25;5013493;28;20077;-65
2021/06/13 01:07:28;;;;;;;4.85;3.08;;;;;;;16.58;72.17;99542.38;4996582;28;20108;-66
2021/06/13 01:10:23;;;;;;;7.30;3.35;;;;;;;16.54;72.07;99539.94;5014138;28;20141;-66
2021/06/13 01:13:02;;;;;;;5.43;3.28;;;;;;;16.46;72.24;99540.09;5014393;28;20053;-66
2021/06/13 01:15:42;;;;;;;4.80;3.43;;;;;;;16.45;72.25;99547.88;5014211;28;20054;-66
2021/06/13 01:18:23;;;;;;;4.70;3.35;;;;;;;16.44;72.38;99552.19;5013990;28;20045;-65
2021/06/13 01:21:02;;;;;;;5.25;3.22;;;;;;;16.40;72.41;99545.44;5013449;28;20440;-64
2021/06/13 01:23:51;;;;;;;5.63;3.22;;;;;;;16.36;72.10;99553.28;4992897;28;20058;-65
2021/06/13 01:26:52;;;;;;;7.10;3.47;;;;;;;16.36;72.27;99548.13;4994051;28;20671;-64
2021/06/13 01:29:29;;;;;;;5.88;3.28;;;;;;;16.34;72.33;99560.22;4994467;28;20495;-65
2021/06/13 01:32:07;;;;;;;7.22;3.42;;;;;;;16.31;72.51;99549.97;4994424;28;20058;-65
2021/06/13 01:34:40;;;;;;;6.90;3.55;;;;;;;16.33;72.45;99554.22;4993751;28;20062;-65
2021/06/13 01:37:20;;;;;;;5.70;3.75;;;;;;;16.29;72.65;99562.06;4992296;28;20050;-65
2021/06/13 01:39:57;;;;;;;7.55;3.67;;;;;;;16.29;72.21;99562.06;4991427;28;20117;-66
2021/06/13 01:42:28;;;;;;;5.68;3.45;;;;;;;16.34;72.40;99565.38;4992511;28;20050;-65
2021/06/13 01:45:00;;;;;;;5.05;3.13;;;;;;;16.34;72.60;99566.19;4995008;28;20101;-65
2021/06/13 01:47:34;;;;;;;7.45;3.20;;;;;;;16.41;71.92;99572.06;4996702;28;20431;-65
2021/06/13 01:50:06;;;;;;;5.15;3.58;;;;;;;16.34;71.82;99565.38;4997628;28;20488;-67
2021/06/13 01:52:37;;;;;;;4.82;3.40;;;;;;;16.30;72.53;99568.88;4998276;28;20054;-64
2021/06/13 01:55:13;;;;;;;6.47;3.15;;;;;;;16.34;72.20;99570.53;4996433;28;20105;-65
2021/06/13 01:57:46;;;;;;;6.22;4.05;;;;;;;16.35;72.45;99577.34;4998066;28;20109;-65
2021/06/13 02:00:44;;;;;;;6.78;3.63;;;;;;;16.36;72.60;99584.19;4992357;28;20050;-65
2021/06/13 02:03:22;;;;;;;4.88;3.53;;;;;;;16.34;72.52;99585.97;4996911;28;20603;-65
2021/06/13 02:06:04;;;;;;;6.70;3.53;;;;;;;16.31;72.13;99591.19;4996236;28;20055;-65
2021/06/13 02:08:40;;;;;;;4.82;3.28;;;;;;;16.30;72.59;99594.63;4997917;28;20538;-65
2021/06/13 02:11:20;;;;;;;5.35;3.63;;;;;;;16.28;72.40;99596.41;4997235;28;20058;-65
2021/06/13 02:13:50;;;;;;;6.32;3.25;;;;;;;16.20;72.57;99593.19;4997813;28;20129;-64
2021/06/13 02:16:32;;;;;;;7.72;3.83;;;;;;;16.16;72.51;99601.88;4997838;28;20073;-65
2021/06/13 02:19:03;;;;;;;6.47;3.55;;;;;;;16.05;72.51;99600.41;4997534;28;20065;-65
2021/06/13 02:21:43;;;;;;;6.72;3.58;;;;;;;16.04;72.97;99609.03;4997695;28;20378;-65
2021/06/13 02:24:18;;;;;;;6.88;3.72;;;;;;;16.05;72.99;99610.69;5015886;28;20042;-65
2021/06/13 02:26:51;;;;;;;8.07;3.70;;;;;;;16.10;72.20;99608.84;5016460;28;20057;-65
2021/06/13 02:29:25;;;;;;;6.82;3.50;;;;;;;16.14;72.02;99614.78;5015946;28;20050;-66
2021/06/13 02:32:00;;;;;;;6.18;3.40;;;;;;;16.18;71.86;99618.13;5017080;28;20058;-65
2021/06/13 02:34:33;;;;;;;5.03;3.17;;;;;;;16.21;71.47;99615.47;5017545;28;20081;-66
2021/06/13 02:37:07;;;;;;;8.93;3.40;;;;;;;16.21;71.24;99618.06;4998642;28;20045;-65
2021/06/13 02:39:40;;;;;;;6.22;2.70;;;;;;;16.19;70.33;99612.09;5015622;28;20112;-65
2021/06/13 02:42:27;;;;;;;5.57;3.03;;;;;;;16.25;70.17;99614.50;5015289;28;20080;-64
2021/06/13 02:44:59;;;;;;;5.55;3.45;;;;;;;16.27;69.86;99615.34;5015856;28;20049;-65
2021/06/13 02:47:34;;;;;;;6.20;2.72;;;;;;;16.21;69.46;99607.75;4999374;28;20058;-65
2021/06/13 02:50:08;;;;;;;5.97;2.80;;;;;;;16.23;69.05;99618.88;4998408;28;20042;-65
2021/06/13 02:52:45;;;;;;;4.60;3.00;;;;;;;16.24;68.95;99621.41;4997654;28;20089;-65
2021/06/13 02:55:21;;;;;;;6.30;3.05;;;;;;;16.25;68.75;99622.25;5015350;28;20082;-65
2021/06/13 02:58:02;;;;;;;6.47;2.70;;;;;;;16.23;69.00;99624.00;5016518;28;20046;-65
2021/06/13 03:00:36;;;;;;;4.38;2.70;;;;;;;16.28;68.34;99627.31;5015090;28;20104;-65
2021/06/13 03:03:11;;;;;;;5.25;2.63;;;;;;;16.27;68.46;99630.81;4997732;28;20045;-65
2021/06/13 03:09:16;;;;;;;4.47;2.78;;;;;;;16.29;67.86;99631.59;4938034;29;20122;-65
2021/06/13 03:11:47;;;;;;;5.78;2.83;;;;;;;16.24;67.98;99642.03;4938781;29;20494;-65
2021/06/13 03:14:17;;;;;;;5.53;2.47;;;;;;;16.28;67.84;99645.34;4938925;29;20106;-66
2021/06/13 03:16:50;;;;;;;4.63;2.60;;;;;;;16.32;67.75;99652.09;4938819;29;20056;-66
2021/06/13 03:19:22;;;;;;;5.30;2.70;;;;;;;16.29;67.64;99660.75;4938834;29;20048;-66
2021/06/13 03:21:53;;;;;;;5.38;2.30;;;;;;;16.35;67.10;99664.94;4938528;29;20423;-65
2021/06/13 03:24:23;;;;;;;5.40;2.72;;;;;;;16.36;67.33;99669.22;4938668;29;20083;-66
2021/06/13 03:26:58;;;;;;;5.38;2.72;;;;;;;16.46;66.94;99673.25;4937361;29;20047;-65
2021/06/13 03:29:31;;;;;;;7.85;2.50;;;;;;;16.43;66.46;99668.16;4937246;29;20075;-66
2021/06/13 03:32:05;;;;;;;5.30;2.70;;;;;;;16.50;66.29;99674.88;4938532;29;20051;-65
2021/06/13 03:34:44;;;;;;;4.18;2.30;;;;;;;16.56;65.97;99685.03;4938562;29;20076;-65
2021/06/13 03:37:15;;;;;;;5.88;2.45;;;;;;;16.55;65.74;99683.38;4938516;29;20059;-65
2021/06/13 03:39:47;;;;;;;4.53;2.35;;;;;;;16.59;65.98;99696.13;4938264;29;20103;-64
2021/06/13 03:42:19;;;;;;;4.13;2.50;;;;;;;16.65;65.88;99695.97;4938344;29;20075;-66
2021/06/13 03:44:54;;;;;;;6.90;2.75;;;;;;;16.69;65.37;99702.75;4938181;29;20078;-65
2021/06/13 03:47:25;;;;;;;7.82;2.70;;;;;;;16.67;65.88;99706.25;4938036;29;20056;-65
2021/06/13 03:50:00;;;;;;;5.72;2.45;;;;;;;16.67;65.50;99704.53;4938237;29;20052;-64
2021/06/13 03:52:34;;;;;;;5.57;2.60;;;;;;;16.70;65.76;99712.16;4938444;29;20059;-64
2021/06/13 03:55:04;;;;;;;7.43;2.63;;;;;;;16.78;65.21;99717.13;4938221;29;20167;-65
2021/06/13 03:57:35;;;;;;;10.43;2.90;;;;;;;16.90;64.67;99724.56;4938408;29;20055;-65
2021/06/13 04:00:10;;;;;;;8.30;2.78;;;;;;;17.01;64.48;99719.94;4937836;29;20494;-65
2021/06/13 04:02:46;;;;;;;6.85;2.15;;;;;;;17.09;63.95;99732.66;4938286;29;20058;-65
2021/06/13 04:05:26;;;;;;;6.20;2.20;;;;;;;17.22;64.06;99732.31;4937968;29;20064;-65
2021/06/13 04:07:59;;;;;;;6.32;2.20;;;;;;;17.25;63.49;99729.63;4956544;28;20062;-66
2021/06/13 04:10:32;;;;;;;4.32;1.77;;;;;;;17.29;62.86;99741.56;4976298;28;20070;-66
2021/06/13 04:13:06;;;;;;;6.38;1.98;;;;;;;17.32;62.67;99732.91;4976220;28;20058;-65
2021/06/13 04:15:36;;;;;;;3.35;2.10;;;;;;;17.35;62.64;99738.81;4975997;28;20058;-65
2021/06/13 04:18:09;;;;;;;5.07;2.17;;;;;;;17.46;62.59;99740.25;4976140;28;20062;-65
2021/06/13 04:20:43;;;;;;;5.47;2.10;;;;;;;17.49;62.17;99746.19;4976142;28;20404;-65
2021/06/13 04:23:16;;;;;;;4.63;1.92;;;;;;;17.62;62.01;99751.88;4975999;28;20063;-65
2021/06/13 04:25:48;;;;;;;5.00;2.00;;;;;;;17.70;61.17;99747.34;4976040;28;20059;-66
2021/06/13 04:28:21;;;;;;;5.18;2.20;;;;;;;17.82;60.88;99747.00;4976015;28;20460;-65
2021/06/13 04:31:12;;;;;;;4.03;1.85;;;;;;;17.94;60.71;99747.50;4958773;28;20117;-65
2021/06/13 04:33:44;;;;;;;4.25;1.77;;;;;;;18.15;60.32;99755.47;4976124;28;20050;-65
2021/06/13 04:36:21;;;;;;;3.47;1.80;;;;;;;18.24;60.24;99750.88;4975617;28;20058;-65
2021/06/13 04:38:53;;;;;;;5.38;1.80;;;;;;;18.41;59.21;99746.03;4975820;28;20059;-64
2021/06/13 04:41:23;;;;;;;5.80;1.80;;;;;;;18.58;58.13;99753.28;4975762;28;20444;-66
2021/06/13 04:43:53;;;;;;;5.35;1.83;;;;;;;18.73;58.14;99758.81;4975634;28;20054;-65
2021/06/13 04:46:27;;;;;;;6.40;1.85;;;;;;;18.98;57.49;99765.78;4975620;28;20567;-65
2021/06/13 04:48:58;;;;;;;4.38;1.67;;;;;;;19.15;56.58;99768.59;4975611;28;20496;-66
2021/06/13 04:51:34;;;;;;;;;;;;;;;19.28;55.95;99765.56;4975756;28;20416;-65
2021/06/13 04:54:29;;;;;;;4.90;1.67;;;;;;;19.51;55.13;99769.94;4975430;28;19922;-66
2021/06/13 04:57:24;;;;;;;3.95;1.60;;;;;;;19.59;54.94;99767.94;4975396;28;20054;-65
2021/06/13 04:59:53;;;;;;;3.25;1.55;;;;;;;19.76;54.50;99778.53;4972712;28;20054;-66
2021/06/13 05:05:45;;;;;;;3.97;1.80;;;;;;;20.08;52.54;99767.81;4879119;29;20550;-62
2021/06/13 05:08:16;;;;;;;3.75;1.52;;;;;;;20.19;52.13;99776.94;4880282;29;20135;-62
2021/06/13 05:10:46;;;;;;;6.18;1.88;;;;;;;20.06;51.66;99774.81;4880111;29;20053;-64
2021/06/13 05:13:16;;;;;;;3.15;1.50;;;;;;;19.99;51.21;99760.38;4880303;29;20068;-64
2021/06/13 05:15:52;;;;;;;3.03;1.55;;;;;;;20.27;50.94;99780.13;4880280;29;20133;-63
2021/06/13 05:18:21;;;;;;;6.72;1.50;;;;;;;20.45;50.39;99781.97;4880019;29;20059;-62
2021/06/13 05:20:53;;;;;;;3.80;1.45;;;;;;;20.56;50.10;99777.25;4879967;29;20053;-62
2021/06/13 05:23:26;;;;;;;5.30;1.90;;;;;;;20.74;49.99;99786.88;4880217;29;20148;-64
2021/06/13 05:26:00;;;;;;;2.70;1.52;;;;;;;20.79;49.87;99789.28;4880187;29;20053;-64
2021/06/13 05:28:31;;;;;;;6.45;1.58;;;;;;;20.76;49.50;99786.78;4880362;29;20065;-65
2021/06/13 05:31:00;;;;;;;4.90;1.63;;;;;;;20.69;49.47;99794.84;4880139;29;20376;-63
2021/06/13 05:33:33;;;;;;;3.42;1.63;;;;;;;20.62;49.66;99789.94;4879915;29;20466;-64
2021/06/13 05:36:02;;;;;;;3.58;1.60;;;;;;;20.50;49.46;99798.22;4880084;29;20147;-66
2021/06/13 05:38:33;;;;;;;3.20;1.50;;;;;;;20.40;49.97;99787.34;4879798;29;20049;-61
2021/06/13 05:41:02;;;;;;;5.63;1.90;;;;;;;20.31;49.57;99805.00;4879738;29;20084;-63
2021/06/13 05:43:31;;;;;;;4.35;1.60;;;;;;;20.28;49.84;99797.34;4879820;29;20045;-63
2021/06/13 05:46:02;;;;;;;3.77;1.63;;;;;;;20.28;50.32;99797.34;4879753;29;20049;-62
2021/06/13 05:48:33;;;;;;;4.13;1.75;;;;;;;20.37;49.94;99812.56;4879650;29;20052;-62
2021/06/13 05:51:02;;;;;;;4.18;2.05;;;;;;;20.39;49.83;99805.56;4880308;29;20124;-61
2021/06/13 05:53:33;;;;;;;4.70;1.92;;;;;;;20.39;50.12;99821.13;4894086;29;20097;-63
2021/06/13 05:56:02;;;;;;;3.67;1.50;;;;;;;20.53;50.16;99818.84;4880286;29;20086;-63
2021/06/13 05:58:31;;;;;;;3.83;1.50;;;;;;;20.60;49.70;99817.69;4879818;29;20045;-63
2021/06/13 06:01:01;;;;;;;3.78;1.98;;;;;;;20.66;49.80;99820.03;4879595;29;20538;-63
2021/06/13 06:03:30;;;;;;;6.47;1.83;;;;;;;20.70;49.42;99819.88;4887814;29;20144;-63
2021/06/13 06:05:59;;;;;;;4.90;1.67;;;;;;;20.66;48.79;99830.41;4917400;29;20045;-63
2021/06/13 06:08:29;;;;;;;4.00;1.83;;;;;;;20.31;49.27;99841.31;4917075;29;20062;-62
2021/06/13 06:10:59;;;;;;;3.65;1.70;;;;;;;19.93;49.71;99848.72;4917093;29;20048;-64
2021/06/13 06:13:28;;;;;;;6.78;1.95;;;;;;;19.61;50.59;99846.41;4917051;29;20060;-64
2021/06/13 06:15:57;;;;;;;2.90;1.60;;;;;;;19.46;51.00;99849.53;4917196;29;20414;-65
2021/06/13 06:18:26;;;;;;;4.65;2.00;;;;;;;19.45;51.66;99850.44;4916968;29;20055;-63
2021/06/13 06:20:55;;;;;;;7.40;1.77;;;;;;;19.77;51.66;99857.09;4916913;29;20390;-64
2021/06/13 06:23:24;;;;;;;4.82;1.85;;;;;;;20.07;50.56;99848.22;4916895;29;20096;-61
2021/06/13 06:25:53;;;;;;;3.90;1.80;;;;;;;20.22;49.98;99852.00;4916917;29;20048;-62
2021/06/13 06:28:24;;;;;;;8.65;1.90;;;;;;;20.28;49.46;99828.47;4917064;29;20112;-64
2021/06/13 06:30:53;;;;;;;3.33;1.70;;;;;;;20.54;49.25;99847.31;4918466;29;20071;-64
2021/06/13 06:33:30;;;;;;;2.47;1.52;;;;;;;20.75;49.13;99845.66;4920301;29;20064;-64
2021/06/13 06:35:59;;;;;;;3.78;1.83;;;;;;;20.89;48.85;99853.72;4920211;29;20051;-66
2021/06/13 06:38:28;;;;;;;5.13;2.10;;;;;;;20.98;47.86;99842.97;4920304;29;20044;-63
2021/06/13 06:40:58;;;;;;;3.08;1.58;;;;;;;21.00;47.67;99846.34;4919984;29;20135;-62
2021/06/13 06:43:29;;;;;;;3.28;1.80;;;;;;;21.13;47.63;99836.34;4920105;29;20139;-64
2021/06/13 06:45:58;;;;;;;4.03;1.60;;;;;;;21.13;47.09;99838.94;4920027;29;20063;-64
2021/06/13 06:48:27;;;;;;;5.82;1.88;;;;;;;20.96;47.13;99847.38;4920000;29;20096;-64
2021/06/13 06:50:56;;;;;;;3.15;1.60;;;;;;;20.85;47.16;99846.13;4920072;29;20044;-63
2021/06/13 06:53:26;;;;;;;4.28;1.70;;;;;;;20.71;47.94;99855.28;4920199;29;20401;-64
2021/06/13 06:55:55;;;;;;;;;;;;;;;20.65;48.10;99862.47;4920368;29;20056;-64
2021/06/13 06:58:24;;;;;;;2.80;1.40;;;;;;;20.86;46.80;99848.66;4920410;29;20368;-61
2021/06/13 07:00:54;;;;;;;6.22;1.85;;;;;;;21.04;47.01;99852.25;4919732;29;20040;-63
2021/06/13 07:03:23;;;;;;;2.67;1.50;;;;;;;21.28;46.19;99846.09;4919712;29;20062;-64
2021/06/13 07:05:52;;;;;;;6.10;1.58;;;;;;;21.48;46.46;99848.69;4920103;29;20084;-66
2021/06/13 07:08:21;;;;;;;3.97;1.70;;;;;;;21.51;45.91;99858.09;4919706;29;20055;-62
2021/06/13 07:10:50;;;;;;;3.60;1.58;;;;;;;21.49;45.51;99865.13;4919827;29;20052;-63
2021/06/13 07:13:19;;;;;;;2.75;1.45;;;;;;;21.46;45.79;99849.66;4919619;29;20076;-63
2021/06/13 07:15:48;;;;;;;6.78;1.58;;;;;;;21.65;45.15;99866.16;4919912;29;20063;-64
2021/06/13 07:18:19;;;;;;;4.05;1.50;;;;;;;21.36;45.83;99868.22;4919498;29;20072;-64
2021/06/13 07:20:48;;;;;;;3.80;1.60;;;;;;;21.08;45.73;99865.09;4919454;29;20048;-65
2021/06/13 07:23:17;;;;;;;2.97;1.60;;;;;;;20.69;46.36;99871.81;4919400;29;20048;-62
2021/06/13 07:25:47;;;;;;;4.85;1.70;;;;;;;20.29;47.58;99877.69;4919394;29;20048;-65
2021/06/13 07:28:16;;;;;;;3.95;1.63;;;;;;;20.15;48.41;99879.06;4919363;29;20426;-65
2021/06/13 07:30:45;;;;;;;2.78;1.50;;;;;;;19.96;48.70;99874.50;4919542;29;20120;-66
2021/06/13 07:33:15;;;;;;;4.53;1.60;;;;;;;19.85;49.63;99875.78;4919245;29;20066;-65
2021/06/13 07:35:45;;;;;;;3.95;1.80;;;;;;;19.81;50.22;99885.44;4919038;29;20048;-65
2021/06/13 07:38:14;;;;;;;4.20;1.80;;;;;;;19.77;50.30;99889.00;4919243;29;20549;-64
2021/06/13 07:40:44;;;;;;;4.60;1.90;;;;;;;19.67;49.89;99892.84;4919053;29;20066;-65
2021/06/13 07:43:13;;;;;;;3.15;1.80;;;;;;;19.64;50.29;99879.13;4919160;29;20056;-66
2021/06/13 07:45:42;;;;;;;3.45;1.80;;;;;;;19.73;51.01;99887.44;4919031;29;20055;-64
2021/06/13 07:48:12;;;;;;;7.68;1.83;;;;;;;19.99;50.72;99884.78;4918942;29;20402;-65
2021/06/13 07:50:43;;;;;;;6.00;2.10;;;;;;;20.55;50.06;99880.13;4918989;29;20384;-65
2021/06/13 07:53:14;;;;;;;3.33;2.17;;;;;;;20.95;48.84;99892.38;4918980;29;20044;-65
2021/06/13 07:55:47;;;;;;;3.83;1.90;;;;;;;21.17;47.13;99882.88;4918909;29;20075;-65
2021/06/13 07:58:16;;;;;;;5.82;1.90;;;;;;;21.44;46.88;99895.63;4918777;29;20462;-66
2021/06/13 08:00:45;;;;;;;3.78;1.80;;;;;;;21.76;46.19;99879.53;4918673;29;20040;-65
2021/06/13 08:03:14;;;;;;;6.50;2.00;;;;;;;22.02;45.66;99881.88;4918558;29;20135;-65
2021/06/13 08:05:43;;;;;;;5.22;2.20;;;;;;;22.10;45.12;99879.78;4918699;29;20060;-62
2021/06/13 08:08:14;;;;;;;10.48;2.88;;;;;;;22.17;44.36;99880.34;4918634;29;20078;-64
2021/06/13 08:10:43;;;;;;;3.88;1.60;;;;;;;22.25;44.31;99884.28;4918532;29;20052;-66
2021/06/13 08:13:13;;;;;;;8.55;2.60;;;;;;;22.55;43.68;99884.66;4918521;29;20068;-62
2021/06/13 08:15:42;;;;;;;6.85;2.10;;;;;;;22.48;43.70;99885.88;4918503;29;20511;-62
2021/06/13 08:18:11;;;;;;;5.00;2.38;;;;;;;22.32;43.66;99836.28;4918312;29;20044;-63
2021/06/13 08:20:41;;;;;;;6.28;2.03;;;;;;;22.78;44.03;99883.59;4918350;29;20126;-64
2021/06/13 08:23:11;;;;;;;7.53;1.67;;;;;;;22.85;44.43;99885.00;4918459;29;20052;-64
2021/06/13 08:25:41;;;;;;;6.40;1.90;;;;;;;22.97;44.91;99889.63;4918289;29;20514;-61
2021/06/13 08:28:11;;;;;;;4.75;2.10;;;;;;;22.98;44.26;99891.31;4918081;29;20052;-65
2021/06/13 08:30:40;;;;;;;3.53;1.85;;;;;;;23.10;44.36;99890.72;4918075;29;20071;-65
2021/06/13 08:33:09;;;;;;;5.78;1.92;;;;;;;22.90;44.94;99883.03;4916933;29;20054;-65
2021/06/13 08:35:38;;;;;;;4.35;1.80;;;;;;;22.64;45.20;99905.94;4918225;29;20055;-66
2021/06/13 08:38:08;;;;;;;3.25;1.50;;;;;;;22.36;45.99;99902.84;4918002;29;20107;-65
2021/06/13 08:40:38;;;;;;;4.40;1.70;;;;;;;21.88;45.50;99905.84;4918335;29;20060;-65
2021/06/13 08:43:09;;;;;;;5.43;1.85;;;;;;;21.43;46.63;99901.75;4917915;29;20056;-64
2021/06/13 08:45:40;;;;;;;3.22;1.70;;;;;;;21.10;47.06;99915.19;4917935;29;20076;-64
2021/06/13 08:48:10;;;;;;;3.97;1.80;;;;;;;20.88;47.76;99913.44;4917884;29;20417;-66
2021/06/13 08:50:40;;;;;;;4.30;1.52;;;;;;;20.70;47.97;99910.69;4917879;29;20082;-66
2021/06/13 08:53:08;;;;;;;;;;;;;;;21.35;47.29;99910.69;4918003;29;20449;-65
2021/06/13 08:55:37;;;;;;;3.58;1.65;;;;;;;21.86;46.38;99906.84;4917804;29;19923;-66
2021/06/13 08:58:10;;;;;;;4.60;2.20;;;;;;;22.07;44.81;99900.72;4917714;29;20406;-65
2021/06/13 09:00:41;;;;;;;3.58;1.88;;;;;;;22.33;43.75;99908.22;4917711;29;20478;-63
2021/06/13 09:03:13;;;;;;;3.95;1.88;;;;;;;22.32;44.18;99905.66;4917419;29;20051;-62
2021/06/13 09:05:42;;;;;;;3.72;1.80;;;;;;;22.20;43.93;99901.84;4917660;29;20104;-61
2021/06/13 09:08:12;;;;;;;3.67;1.90;;;;;;;21.94;44.24;99916.00;4917595;29;20084;-66
2021/06/13 09:10:44;;;;;;;6.63;2.22;;;;;;;21.55;44.84;99912.47;4917503;29;20071;-64
2021/06/13 09:13:17;;;;;;;4.20;1.95;;;;;;;21.18;44.89;99913.13;4917953;29;20056;-64
2021/06/13 09:15:48;;;;;;;4.32;1.92;;;;;;;21.34;45.29;99914.19;4917600;29;20068;-65
2021/06/13 09:18:29;;;;;;;5.10;2.05;;;;;;;22.02;45.64;99913.06;4917586;29;20074;-66
2021/06/13 09:21:00;;;;;;;3.67;1.67;;;;;;;22.42;44.61;99923.41;4917467;29;20502;-62
2021/06/13 09:23:30;;;;;;;3.03;1.80;;;;;;;22.49;43.24;99919.59;4917310;29;20402;-65
2021/06/13 09:26:01;;;;;;;4.45;1.80;;;;;;;22.57;43.61;99920.09;4917496;29;20063;-65
2021/06/13 09:28:34;;;;;;;4.53;1.77;;;;;;;22.12;43.84;99914.38;4917701;29;20056;-66
2021/06/13 09:31:04;;;;;;;5.40;2.10;;;;;;;21.79;44.19;99913.16;4917650;29;20081;-66
2021/06/13 09:33:35;;;;;;;3.13;1.83;;;;;;;21.49;46.03;99914.47;4917425;29;20108;-64
2021/06/13 09:36:07;;;;;;;3.22;1.95;;;;;;;21.34;45.58;99914.19;4917351;29;20459;-68
2021/06/13 09:38:38;;;;;;;3.17;1.83;;;;;;;21.21;45.95;99923.38;4917378;29;20052;-67
2021/06/13 09:41:10;;;;;;;3.22;2.10;;;;;;;20.95;45.39;99927.88;4917288;29;20056;-68
2021/06/13 09:43:42;;;;;;;4.70;2.20;;;;;;;20.67;45.24;99884.00;4917276;29;20044;-63
2021/06/13 09:46:14;;;;;;;5.40;1.90;;;;;;;21.07;45.37;99935.22;4917328;29;20127;-66
2021/06/13 09:48:45;;;;;;;7.25;2.47;;;;;;;21.11;45.57;99932.47;4916094;29;20056;-65
2021/06/13 09:51:17;;;;;;;4.05;1.80;;;;;;;21.29;44.87;99936.06;4917281;29;20128;-64
2021/06/13 09:53:48;;;;;;;3.90;2.00;;;;;;;21.47;44.34;99922.34;4917059;29;20455;-66
2021/06/13 09:56:21;;;;;;;3.65;1.92;;;;;;;21.19;44.00;99883.66;4917170;29;20458;-64
2021/06/13 09:59:00;;;;;;;5.35;2.17;;;;;;;21.15;44.43;99927.97;4917339;29;20056;-63
2021/06/13 10:01:31;;;;;;;3.70;2.03;;;;;;;20.77;45.10;99937.22;4917142;29;20047;-63
2021/06/13 10:04:02;;;;;;;5.20;1.92;;;;;;;20.46;45.71;99941.88;4916969;29;20072;-63
2021/06/13 10:06:33;;;;;;;4.78;2.40;;;;;;;20.45;46.36;99934.97;4920261;29;20124;-61
2021/06/13 10:09:03;;;;;;;7.10;2.30;;;;;;;21.02;45.98;99943.16;4920841;29;20052;-64
2021/06/13 10:11:35;;;;;;;3.78;2.00;;;;;;;21.76;45.00;99934.13;4920685;29;20127;-62
2021/06/13 10:14:08;;;;;;;3.65;1.85;;;;;;;22.44;44.40;99942.38;4920716;29;20459;-62
2021/06/13 10:16:44;;;;;;;3.53;1.65;;;;;;;22.52;43.39;99924.69;4920751;29;20078;-62
2021/06/13 10:19:15;;;;;;;5.10;1.90;;;;;;;22.57;43.54;99927.06;4920938;29;20055;-65
2021/06/13 10:21:47;;;;;;;3.30;1.85;;;;;;;22.45;44.00;99923.25;4920636;29;20119;-63
2021/06/13 10:24:18;;;;;;;3.72;1.80;;;;;;;22.29;43.94;99927.44;4920407;29;20056;-63
2021/06/13 10:26:48;;;;;;;5.43;2.20;;;;;;;22.14;43.74;99916.91;4920505;29;20072;-64
2021/06/13 10:29:20;;;;;;;4.40;1.90;;;;;;;21.84;42.90;99925.09;4920500;29;20135;-65
2021/06/13 10:31:51;;;;;;;7.63;2.10;;;;;;;21.55;43.16;99937.59;4920375;29;20075;-64
2021/06/13 10:34:21;;;;;;;5.30;2.60;;;;;;;21.28;43.55;99936.97;4920306;29;20052;-65
2021/06/13 10:36:51;;;;;;;3.17;1.83;;;;;;;21.17;44.02;99941.75;4920603;29;20044;-65
2021/06/13 10:39:22;;;;;;;6.07;2.47;;;;;;;21.23;44.62;99937.16;4920597;29;20517;-66
2021/06/13 10:41:52;;;;;;;3.13;1.80;;;;;;;22.08;43.66;99918.00;4920224;29;20147;-65
2021/06/13 10:44:23;;;;;;;3.70;2.42;;;;;;;22.93;42.29;99924.53;4920118;29;20097;-65
2021/06/13 10:46:54;;;;;;;3.20;1.70;;;;;;;23.45;41.40;99934.16;4919303;29;20056;-64
2021/06/13 10:49:32;;;;;;;5.30;2.00;;;;;;;23.96;42.17;99926.34;4920143;29;20052;-63
2021/06/13 10:52:12;;;;;;;4.03;1.85;;;;;;;23.97;39.37;99933.22;4920142;29;20127;-63
2021/06/13 10:54:56;;;;;;;3.83;2.00;;;;;;;23.35;39.26;99932.91;4920108;29;20076;-66
2021/06/13 10:57:31;;;;;;;4.80;2.15;;;;;;;23.03;40.26;99941.44;4919988;29;20103;-66
2021/06/13 11:00:26;;;;;;;4.60;2.25;;;;;;;22.99;41.19;99934.66;4919837;29;20048;-66
2021/06/13 11:03:01;;;;;;;5.60;2.03;;;;;;;22.75;41.31;99941.84;4919859;29;20040;-67
2021/06/13 11:05:44;;;;;;;6.20;2.03;;;;;;;22.51;40.62;99942.94;4919840;29;20050;-66
2021/06/13 11:08:14;;;;;;;4.93;2.20;;;;;;;22.25;41.67;99944.09;4919844;29;20554;-67
2021/06/13 11:10:44;;;;;;;3.80;1.73;;;;;;;21.96;42.09;99941.94;4919990;29;20056;-67
2021/06/13 11:13:16;;;;;;;4.20;1.50;;;;;;;21.92;41.67;99942.97;4919765;29;20087;-63
2021/06/13 11:15:49;;;;;;;5.30;1.83;;;;;;;21.98;41.59;99947.91;4919216;29;20072;-64
2021/06/13 11:18:22;;;;;;;4.55;1.90;;;;;;;22.93;40.99;99940.16;4920193;29;20107;-64
2021/06/13 11:20:54;;;;;;;2.95;1.70;;;;;;;23.29;39.65;99931.44;4919620;29;20486;-63
2021/06/13 11:23:44;;;;;;;2.92;1.60;;;;;;;23.48;38.71;99931.41;4919783;29;20076;-62
2021/06/13 11:26:28;;;;;;;3.28;1.65;;;;;;;23.45;38.46;99944.59;4919529;29;20052;-67
2021/06/13 11:28:58;;;;;;;5.97;1.70;;;;;;;23.43;39.58;99937.75;4919455;29;20052;-68
2021/06/13 11:31:28;;;;;;;2.90;1.80;;;;;;;23.22;40.11;99937.03;4919394;29;20104;-66
2021/06/13 11:34:03;;;;;;;3.85;1.50;;;;;;;22.73;39.89;99927.22;4919406;29;20123;-65
2021/06/13 11:36:34;;;;;;;3.03;1.70;;;;;;;22.36;40.63;99944.47;4919167;29;20056;-67
2021/06/13 11:39:21;;;;;;;3.35;1.58;;;;;;;22.21;40.49;99945.16;4919323;29;20080;-66
2021/06/13 11:42:06;;;;;;;4.03;1.60;;;;;;;21.99;40.88;99914.06;4919188;29;20048;-67
2021/06/13 11:44:40;;;;;;;5.18;1.83;;;;;;;22.65;40.25;99935.41;4919395;29;20048;-65
2021/06/13 11:47:36;;;;;;;2.80;1.60;;;;;;;22.71;40.58;99934.25;4919381;29;20075;-61
2021/06/13 11:50:14;;;;;;;2.50;1.52;;;;;;;22.77;39.46;99928.78;4919014;29;20127;-67
2021/06/13 11:53:05;;;;;;;3.65;1.55;;;;;;;23.43;38.50;99929.94;4919291;29;20075;-66
2021/06/13 11:55:52;;;;;;;3.03;1.67;;;;;;;23.47;38.32;99924.50;4918908;29;20060;-67
2021/06/13 11:58:21;;;;;;;5.60;2.03;;;;;;;23.05;39.14;99930.03;4918779;29;20060;-66
2021/06/13 12:00:58;;;;;;;5.13;1.60;;;;;;;22.63;39.06;99927.66;4919019;29;20417;-67
2021/06/13 12:03:28;;;;;;;3.72;1.85;;;;;;;22.34;39.63;99937.69;4918578;29;20066;-67
2021/06/13 12:06:06;;;;;;;5.05;2.10;;;;;;;22.13;40.49;99929.03;4918683;29;20135;-66
2021/06/13 12:08:42;;;;;;;3.88;1.92;;;;;;;21.86;40.40;99922.44;4918652;29;20063;-65